Time;durP1;ratioP1;P1;durP2;ratioP2;P2;SDS_P1;SDS_P2;PMS_P1;PMS_P2;Temp;Humidity;BMP_temperature;BMP_pressure;BME280_temperature;BME280_humidity;BME280_pressure;Samples;Min_cycle;Max_cycle;Signal;HPM_P1;HPM_P2
2022/08/08 00:01:37;;;;;;;4.33;1.67;;;15.90;99.90;;;;;;5074261;28;20301;-46
2022/08/08 00:04:29;;;;;;;3.83;1.97;;;15.90;99.90;;;;;;5074383;28;20167;-45
2022/08/08 00:07:10;;;;;;;3.50;1.60;;;15.80;99.90;;;;;;5074187;28;20179;-45
2022/08/08 00:09:57;;;;;;;2.13;1.80;;;15.80;99.90;;;;;;5074331;28;20172;-46
2022/08/08 00:12:29;;;;;;;2.30;1.70;;;15.80;99.90;;;;;;5074396;28;20230;-46
2022/08/08 00:15:21;;;;;;;3.43;1.87;;;15.80;99.90;;;;;;5073847;28;20202;-45
2022/08/08 00:18:04;;;;;;;7.30;2.07;;;15.70;99.90;;;;;;5073958;28;20186;-44
2022/08/08 00:20:37;;;;;;;3.67;1.83;;;15.60;99.90;;;;;;5073756;28;20538;-46
2022/08/08 00:23:10;;;;;;;2.23;1.97;;;15.60;99.90;;;;;;5074066;28;20575;-45
2022/08/08 00:25:40;;;;;;;3.13;1.83;;;15.50;99.90;;;;;;5074015;28;20536;-47
2022/08/08 00:28:09;;;;;;;5.60;1.80;;;15.50;99.90;;;;;;5073901;28;20232;-44
2022/08/08 00:30:40;;;;;;;2.43;1.90;;;15.50;99.90;;;;;;5073528;28;20210;-46
2022/08/08 00:33:05;;;;;;;5.00;1.80;;;15.40;99.90;;;;;;5073650;28;20213;-45
2022/08/08 00:35:45;;;;;;;4.40;1.83;;;15.40;99.90;;;;;;5073456;28;20183;-47
2022/08/08 00:38:32;;;;;;;3.27;1.87;;;15.40;99.90;;;;;;5073474;28;20191;-44
2022/08/08 00:41:04;;;;;;;2.90;1.67;;;15.40;99.90;;;;;;5073715;28;20196;-44
2022/08/08 00:43:57;;;;;;;2.73;1.83;;;15.40;99.90;;;;;;5073593;28;20183;-44
2022/08/08 00:46:44;;;;;;;2.77;1.90;;;15.40;99.90;;;;;;5073731;28;20190;-45
2022/08/08 00:49:21;;;;;;;3.00;1.83;;;15.40;99.90;;;;;;5073725;28;20172;-46
2022/08/08 00:52:17;;;;;;;2.73;2.10;;;15.40;99.90;;;;;;5073313;28;20210;-45
2022/08/08 00:55:05;;;;;;;3.57;1.70;;;15.40;99.90;;;;;;5073756;28;20164;-47
2022/08/08 00:58:07;;;;;;;5.57;2.10;;;15.40;99.90;;;;;;5073679;28;20167;-46
2022/08/08 01:00:56;;;;;;;5.17;2.07;;;15.40;99.90;;;;;;5073805;28;20563;-45
2022/08/08 01:03:30;;;;;;;2.53;2.20;;;15.30;99.90;;;;;;5073606;28;20262;-45
2022/08/08 01:06:24;;;;;;;2.73;2.20;;;15.30;99.90;;;;;;5073292;28;20237;-43
2022/08/08 01:08:59;;;;;;;4.20;2.20;;;15.30;99.90;;;;;;5073786;28;20160;-45
2022/08/08 01:11:30;;;;;;;3.17;2.40;;;15.30;99.90;;;;;;5073506;28;20246;-46
2022/08/08 01:14:08;;;;;;;3.93;2.27;;;15.30;99.90;;;;;;5071952;28;20187;-47
2022/08/08 01:16:36;;;;;;;3.67;2.23;;;15.20;99.90;;;;;;5073250;28;20168;-43
2022/08/08 01:19:44;;;;;;;5.30;2.10;;;15.20;99.90;;;;;;5073163;28;20183;-44
2022/08/08 01:22:29;;;;;;;4.50;2.10;;;15.20;99.90;;;;;;5059504;28;20202;-45
2022/08/08 01:25:26;;;;;;;3.90;2.60;;;15.10;99.90;;;;;;5073210;28;20163;-45
2022/08/08 01:28:05;;;;;;;5.83;2.40;;;15.10;99.90;;;;;;5053788;28;20612;-44
2022/08/08 01:31:07;;;;;;;3.33;2.30;;;15.10;99.90;;;;;;5073514;28;20594;-45
2022/08/08 01:33:45;;;;;;;6.50;2.77;;;15.00;99.90;;;;;;5073506;28;20163;-45
2022/08/08 01:36:31;;;;;;;4.53;2.33;;;14.90;99.90;;;;;;5073311;28;20187;-46
2022/08/08 01:39:28;;;;;;;4.30;2.30;;;14.90;99.90;;;;;;5073650;28;20184;-46
2022/08/08 01:42:18;;;;;;;4.10;2.60;;;14.80;99.90;;;;;;5073468;28;20253;-46
2022/08/08 01:45:01;;;;;;;5.43;2.73;;;14.80;99.90;;;;;;5073390;28;20164;-45
2022/08/08 01:47:49;;;;;;;4.57;2.50;;;14.80;99.90;;;;;;5074486;28;20176;-44
2022/08/08 01:50:31;;;;;;;4.27;2.53;;;14.70;99.90;;;;;;5076790;28;20207;-46
2022/08/08 01:53:19;;;;;;;3.50;2.50;;;14.60;99.90;;;;;;5077536;28;20164;-45
2022/08/08 01:55:56;;;;;;;4.33;2.80;;;14.60;99.90;;;;;;5077875;28;20171;-44
2022/08/08 01:58:50;;;;;;;3.97;2.70;;;14.50;99.90;;;;;;5078833;28;20703;-40
2022/08/08 02:01:22;;;;;;;4.63;2.50;;;14.50;99.90;;;;;;5078659;28;20227;-41
2022/08/08 02:04:15;;;;;;;3.17;2.17;;;14.40;99.90;;;;;;5079438;28;20163;-40
2022/08/08 02:07:03;;;;;;;4.83;2.40;;;14.40;99.90;;;;;;5077467;28;20164;-40
2022/08/08 02:09:47;;;;;;;4.10;2.60;;;14.40;99.90;;;;;;5076385;28;20182;-41
2022/08/08 02:12:59;;;;;;;4.30;2.73;;;14.30;99.90;;;;;;5076558;28;20233;-40
2022/08/08 02:16:10;;;;;;;4.40;2.90;;;14.30;99.90;;;;;;5065923;28;20226;-41
2022/08/08 02:18:59;;;;;;;5.33;2.80;;;14.30;99.90;;;;;;5034089;28;20585;-42
2022/08/08 02:24:28;;;;;;;3.77;2.70;;;14.10;99.90;;;;;;5076627;28;20212;-41
2022/08/08 02:27:17;;;;;;;4.00;2.70;;;14.20;99.90;;;;;;5076369;28;20254;-41
2022/08/08 02:30:04;;;;;;;5.47;2.90;;;14.20;99.90;;;;;;5075935;28;20186;-40
2022/08/08 02:32:51;;;;;;;7.43;3.00;;;14.10;99.90;;;;;;5075992;28;20582;-41
2022/08/08 02:35:53;;;;;;;5.10;2.73;;;14.10;99.90;;;;;;5076397;28;20202;-41
2022/08/08 02:38:33;;;;;;;3.80;3.03;;;14.00;99.90;;;;;;5075904;28;20186;-42
2022/08/08 02:41:26;;;;;;;5.20;3.10;;;14.00;99.90;;;;;;5075777;28;20690;-40
2022/08/08 02:44:10;;;;;;;4.33;3.27;;;13.90;99.90;;;;;;5075903;28;20528;-40
2022/08/08 02:46:52;;;;;;;5.63;3.43;;;13.90;99.90;;;;;;5075876;28;20168;-39
2022/08/08 02:49:48;;;;;;;4.97;2.93;;;13.90;99.90;;;;;;5075822;28;20167;-38
2022/08/08 02:52:33;;;;;;;5.93;3.40;;;13.90;99.90;;;;;;5075732;28;20251;-40
2022/08/08 02:55:22;;;;;;;5.77;3.13;;;13.90;99.90;;;;;;5075750;28;20172;-40
2022/08/08 02:58:13;;;;;;;6.10;3.47;;;13.80;99.90;;;;;;5075734;28;20214;-40
2022/08/08 03:00:55;;;;;;;4.20;3.07;;;13.80;99.90;;;;;;5075074;28;20211;-40
2022/08/08 03:03:55;;;;;;;5.37;3.10;;;13.80;99.90;;;;;;5074063;28;20171;-40
2022/08/08 03:06:45;;;;;;;3.93;3.37;;;13.80;99.90;;;;;;5054016;28;20192;-41
2022/08/08 03:09:49;;;;;;;7.57;3.47;;;13.70;99.90;;;;;;5075477;28;20195;-39
2022/08/08 03:12:14;;;;;;;4.30;3.10;;;13.70;99.90;;;;;;5075314;28;20191;-41
2022/08/08 03:15:17;;;;;;;6.13;3.43;;;13.70;99.90;;;;;;5075041;28;20176;-40
2022/08/08 03:17:54;;;;;;;3.27;2.97;;;13.60;99.90;;;;;;5074955;28;20181;-41
2022/08/08 03:20:19;;;;;;;4.53;3.37;;;13.60;99.90;;;;;;5073881;28;20199;-39
2022/08/08 03:22:50;;;;;;;4.40;3.60;;;13.50;99.90;;;;;;5075164;28;20252;-38
2022/08/08 03:25:18;;;;;;;4.37;3.27;;;13.50;99.90;;;;;;5073578;28;20266;-39
2022/08/08 03:27:50;;;;;;;4.83;3.37;;;13.50;99.90;;;;;;5075031;28;20179;-40
2022/08/08 03:30:19;;;;;;;5.50;3.40;;;13.40;99.90;;;;;;5075063;28;20261;-39
2022/08/08 03:35:29;;;;;;;5.53;3.07;;;13.40;99.90;;;;;;5074638;28;20163;-40
2022/08/08 03:37:58;;;;;;;4.50;3.87;;;13.30;99.90;;;;;;5074453;28;20275;-41
2022/08/08 03:40:24;;;;;;;3.57;3.10;;;13.30;99.90;;;;;;5074480;28;20198;-42
2022/08/08 03:42:49;;;;;;;4.40;3.47;;;13.30;99.90;;;;;;5074759;28;20539;-41
2022/08/08 03:45:17;;;;;;;3.57;3.13;;;13.30;99.90;;;;;;5074478;28;20203;-38
2022/08/08 03:47:43;;;;;;;4.90;3.50;;;13.20;99.90;;;;;;5074609;28;20228;-39
2022/08/08 03:50:18;;;;;;;4.17;3.47;;;13.20;99.90;;;;;;5074515;28;20627;-40
2022/08/08 03:52:44;;;;;;;5.30;3.57;;;13.20;99.90;;;;;;5074535;28;20343;-42
2022/08/08 03:55:12;;;;;;;4.40;3.43;;;13.20;99.90;;;;;;5074240;28;20184;-40
2022/08/08 03:57:42;;;;;;;4.60;4.03;;;13.20;99.90;;;;;;5074541;28;20179;-40
2022/08/08 04:00:13;;;;;;;11.80;3.70;;;13.10;99.90;;;;;;5074572;28;20209;-40
2022/08/08 04:02:39;;;;;;;7.40;3.67;;;13.10;99.90;;;;;;5074453;28;20170;-39
2022/08/08 04:05:05;;;;;;;6.00;4.00;;;13.10;99.90;;;;;;5074747;28;20175;-40
2022/08/08 04:07:40;;;;;;;5.07;4.07;;;13.10;99.90;;;;;;5074376;28;20187;-42
2022/08/08 04:10:07;;;;;;;5.47;3.90;;;13.10;99.90;;;;;;5073575;28;20194;-39
2022/08/08 04:12:33;;;;;;;6.13;3.97;;;13.00;99.90;;;;;;5074397;28;20203;-40
2022/08/08 04:14:59;;;;;;;7.10;4.40;;;13.00;99.90;;;;;;5074159;28;20507;-39
2022/08/08 04:17:25;;;;;;;6.33;3.83;;;13.00;99.90;;;;;;5073848;28;20167;-41
2022/08/08 04:19:50;;;;;;;7.10;4.17;;;13.00;99.90;;;;;;5074065;28;20174;-40
2022/08/08 04:22:16;;;;;;;6.13;3.87;;;13.00;99.90;;;;;;5073737;28;20187;-41
2022/08/08 04:24:41;;;;;;;6.70;4.27;;;12.90;99.90;;;;;;5073962;28;20269;-41
2022/08/08 04:27:07;;;;;;;5.77;4.17;;;12.90;99.90;;;;;;5073926;28;20187;-41
2022/08/08 04:29:32;;;;;;;5.43;4.43;;;12.90;99.90;;;;;;5073678;28;20592;-42
2022/08/08 04:31:58;;;;;;;5.20;4.10;;;12.90;99.90;;;;;;5073471;28;20242;-42
2022/08/08 04:34:24;;;;;;;7.70;4.13;;;12.90;99.90;;;;;;5073697;28;20198;-42
2022/08/08 04:36:49;;;;;;;6.43;4.60;;;12.90;99.90;;;;;;5073537;28;20622;-41
2022/08/08 04:39:15;;;;;;;6.67;4.60;;;12.90;99.90;;;;;;5074355;28;20190;-39
2022/08/08 04:41:40;;;;;;;7.63;4.43;;;12.90;99.90;;;;;;5073458;28;20557;-39
2022/08/08 04:44:06;;;;;;;7.50;4.83;;;12.90;99.90;;;;;;5073505;28;20183;-42
2022/08/08 04:46:32;;;;;;;5.10;4.40;;;12.90;99.90;;;;;;5073494;28;20202;-40
2022/08/08 04:48:57;;;;;;;9.07;4.90;;;13.00;99.90;;;;;;5073799;28;20188;-42
2022/08/08 04:51:23;;;;;;;6.80;4.80;;;13.00;99.90;;;;;;5072037;28;20588;-42
2022/08/08 04:53:49;;;;;;;7.10;4.77;;;13.00;99.90;;;;;;5073404;28;20173;-40
2022/08/08 04:56:16;;;;;;;5.63;4.73;;;13.00;99.90;;;;;;5073344;28;20537;-41
2022/08/08 04:58:42;;;;;;;7.27;4.70;;;13.00;99.90;;;;;;5073558;28;20188;-41
2022/08/08 05:01:08;;;;;;;6.50;4.90;;;13.10;99.90;;;;;;5073508;28;20200;-40
2022/08/08 05:03:33;;;;;;;7.23;5.07;;;13.10;99.90;;;;;;5073581;28;20252;-41
2022/08/08 05:05:59;;;;;;;8.33;5.17;;;13.10;99.90;;;;;;5072059;28;20660;-39
2022/08/08 05:08:25;;;;;;;7.07;5.10;;;13.20;99.90;;;;;;5073472;28;20270;-40
2022/08/08 05:10:51;;;;;;;10.07;5.47;;;13.20;99.90;;;;;;5071754;28;20221;-40
2022/08/08 05:13:17;;;;;;;9.77;5.37;;;13.30;99.90;;;;;;5073656;28;20194;-39
2022/08/08 05:15:43;;;;;;;7.30;5.67;;;13.40;99.90;;;;;;5073374;28;20152;-38
2022/08/08 05:18:08;;;;;;;8.33;4.97;;;13.40;99.90;;;;;;5073169;28;20697;-39
2022/08/08 05:20:34;;;;;;;8.13;5.77;;;13.50;99.90;;;;;;5073011;28;20230;-44
2022/08/08 05:22:59;;;;;;;10.07;5.40;;;13.50;99.90;;;;;;5075641;28;20229;-44
2022/08/08 05:25:25;;;;;;;8.90;5.50;;;13.60;99.90;;;;;;5077635;28;20171;-43
2022/08/08 05:27:52;;;;;;;10.27;5.40;;;13.60;99.90;;;;;;5077125;28;20179;-44
2022/08/08 05:30:18;;;;;;;8.80;5.83;;;13.70;99.90;;;;;;5076963;28;20221;-44
2022/08/08 05:32:44;;;;;;;13.23;6.27;;;13.80;99.90;;;;;;5077293;28;20184;-43
2022/08/08 05:35:12;;;;;;;10.23;5.93;;;13.80;99.90;;;;;;5077036;28;20540;-43
2022/08/08 05:37:42;;;;;;;10.87;6.53;;;13.90;99.90;;;;;;5076966;28;20183;-43
2022/08/08 05:40:09;;;;;;;9.50;6.07;;;14.00;99.90;;;;;;5077269;28;20203;-44
2022/08/08 05:42:48;;;;;;;13.93;6.97;;;14.00;99.90;;;;;;5077065;28;20261;-44
2022/08/08 05:45:15;;;;;;;17.77;6.67;;;14.00;99.90;;;;;;5076638;28;20183;-45
2022/08/08 05:47:42;;;;;;;17.33;6.40;;;14.10;99.90;;;;;;5076730;28;20176;-44
2022/08/08 05:50:08;;;;;;;17.83;7.53;;;14.20;99.90;;;;;;5076800;28;20192;-43
2022/08/08 05:52:35;;;;;;;13.80;6.27;;;14.20;99.90;;;;;;5076798;28;20293;-44
2022/08/08 05:55:02;;;;;;;10.93;6.90;;;14.30;99.90;;;;;;5076669;28;20321;-44
2022/08/08 05:57:30;;;;;;;14.37;7.37;;;14.40;99.90;;;;;;5076608;28;20198;-43
2022/08/08 05:59:57;;;;;;;9.93;6.83;;;14.40;99.90;;;;;;5076733;28;20187;-43
2022/08/08 06:05:10;;;;;;;10.00;6.53;;;14.50;99.90;;;;;;5076681;28;20179;-43
2022/08/08 06:07:39;;;;;;;14.23;6.67;;;14.60;99.90;;;;;;5076350;28;20576;-43
2022/08/08 06:10:08;;;;;;;10.50;6.63;;;14.70;99.90;;;;;;5076541;28;20203;-43
2022/08/08 06:12:35;;;;;;;10.33;6.80;;;14.80;99.90;;;;;;5076143;28;20195;-44
2022/08/08 06:15:05;;;;;;;8.10;6.07;;;14.80;99.90;;;;;;5076572;28;20198;-45
2022/08/08 06:17:33;;;;;;;11.60;6.67;;;14.90;99.90;;;;;;5076285;28;20652;-42
2022/08/08 06:20:02;;;;;;;11.60;7.10;;;15.00;99.90;;;;;;5076072;28;20233;-43
2022/08/08 06:22:27;;;;;;;14.60;6.33;;;15.10;99.90;;;;;;5076121;28;20264;-42
2022/08/08 06:24:53;;;;;;;11.80;7.00;;;15.10;99.90;;;;;;5074768;28;20223;-43
2022/08/08 06:27:34;;;;;;;12.80;7.03;;;15.20;99.90;;;;;;5075905;28;20179;-44
2022/08/08 06:30:06;;;;;;;13.63;7.00;;;15.40;99.90;;;;;;5076062;28;20194;-43
2022/08/08 06:32:39;;;;;;;12.17;6.93;;;15.50;99.90;;;;;;5074317;28;20218;-45
2022/08/08 06:35:08;;;;;;;14.60;6.07;;;15.60;99.90;;;;;;5076075;28;20199;-44
2022/08/08 06:37:37;;;;;;;10.20;6.80;;;15.70;99.90;;;;;;5075607;28;20274;-44
2022/08/08 06:40:05;;;;;;;9.27;6.30;;;15.80;99.90;;;;;;5075871;28;20203;-43
2022/08/08 06:42:35;;;;;;;9.90;6.63;;;15.90;99.90;;;;;;5075672;28;20175;-44
2022/08/08 06:45:03;;;;;;;12.50;6.83;;;16.00;99.90;;;;;;5075934;28;20183;-42
2022/08/08 06:47:29;;;;;;;9.90;6.60;;;16.10;99.90;;;;;;5075821;28;20187;-43
2022/08/08 06:49:55;;;;;;;12.87;6.80;;;16.30;99.90;;;;;;5075497;28;20183;-42
2022/08/08 06:52:21;;;;;;;10.17;6.40;;;16.40;99.90;;;;;;5075473;28;20270;-42
2022/08/08 06:54:47;;;;;;;9.23;6.27;;;16.50;99.90;;;;;;5075773;28;20191;-43
2022/08/08 06:57:13;;;;;;;10.47;6.87;;;16.60;99.90;;;;;;5075575;28;20550;-44
2022/08/08 06:59:38;;;;;;;9.17;6.13;;;16.80;99.90;;;;;;5075600;28;20184;-43
2022/08/08 07:02:04;;;;;;;12.13;6.27;;;16.90;99.90;;;;;;5075175;28;20710;-44
2022/08/08 07:04:42;;;;;;;11.60;6.53;;;17.00;99.90;;;;;;5075336;28;20176;-44
2022/08/08 07:07:09;;;;;;;9.67;6.23;;;17.10;99.90;;;;;;5075265;28;20536;-42
2022/08/08 07:09:53;;;;;;;9.73;5.60;;;17.20;99.90;;;;;;5075428;28;20612;-43
2022/08/08 07:12:48;;;;;;;9.70;6.20;;;17.30;99.90;;;;;;5075300;28;20295;-42
2022/08/08 07:15:15;;;;;;;11.17;6.20;;;17.40;99.90;;;;;;5074693;28;20199;-44
2022/08/08 07:17:48;;;;;;;11.23;6.17;;;17.60;99.90;;;;;;5075257;28;20233;-44
2022/08/08 07:20:25;;;;;;;8.63;5.80;;;17.70;99.90;;;;;;5075089;28;20202;-45
2022/08/08 07:23:10;;;;;;;9.40;5.60;;;17.80;99.90;;;;;;5075480;28;20166;-44
2022/08/08 07:25:40;;;;;;;7.03;5.47;;;17.90;99.90;;;;;;5075348;28;20171;-43
2022/08/08 07:28:09;;;;;;;9.53;6.13;;;18.00;99.90;;;;;;5074807;28;20179;-44
2022/08/08 07:30:35;;;;;;;10.07;6.20;;;18.20;99.90;;;;;;5075669;28;20266;-45
2022/08/08 07:33:01;;;;;;;9.47;5.73;;;18.30;99.90;;;;;;5074936;28;20184;-43
2022/08/08 07:35:28;;;;;;;10.33;5.40;;;18.30;99.90;;;;;;5075175;28;20176;-43
2022/08/08 07:37:56;;;;;;;9.30;5.83;;;18.50;99.90;;;;;;5074716;28;20196;-39
2022/08/08 07:40:23;;;;;;;9.43;5.80;;;18.60;99.90;;;;;;5073283;28;20679;-41
2022/08/08 07:42:52;;;;;;;13.17;5.60;;;18.80;99.90;;;;;;5075505;28;20221;-42
2022/08/08 07:45:21;;;;;;;8.87;5.33;;;18.90;99.90;;;;;;5073743;28;20711;-40
2022/08/08 07:47:47;;;;;;;13.63;5.87;;;19.00;99.90;;;;;;5074758;28;20186;-40
2022/08/08 07:50:13;;;;;;;8.83;5.77;;;19.20;99.90;;;;;;5074548;28;20200;-41
2022/08/08 07:52:45;;;;;;;10.73;5.27;;;19.30;99.90;;;;;;5074245;28;20215;-39
2022/08/08 07:55:25;;;;;;;10.13;5.70;;;19.50;99.90;;;;;;5074311;28;20168;-42
2022/08/08 07:58:10;;;;;;;10.73;5.47;;;19.70;99.90;;;;;;5074227;28;20171;-40
2022/08/08 08:00:42;;;;;;;7.77;4.77;;;19.80;99.90;;;;;;5074299;28;20222;-41
2022/08/08 08:03:14;;;;;;;12.53;5.20;;;19.90;99.90;;;;;;5074143;28;20186;-43
2022/08/08 08:05:42;;;;;;;10.03;5.07;;;20.00;99.90;;;;;;5072846;28;20553;-40
2022/08/08 08:08:19;;;;;;;9.00;4.90;;;20.10;99.90;;;;;;5074240;28;20179;-41
2022/08/08 08:10:48;;;;;;;9.97;4.93;;;20.20;99.90;;;;;;5074078;28;20206;-43
2022/08/08 08:13:32;;;;;;;7.30;5.00;;;20.40;99.90;;;;;;5073887;28;20258;-41
2022/08/08 08:16:18;;;;;;;6.80;3.87;;;20.40;99.90;;;;;;5072612;28;20179;-40
2022/08/08 08:18:46;;;;;;;12.13;4.13;;;20.50;99.90;;;;;;5074137;28;20164;-40
2022/08/08 08:21:15;;;;;;;8.10;3.50;;;20.60;99.90;;;;;;5073997;28;20211;-42
2022/08/08 08:23:40;;;;;;;7.80;3.30;;;20.60;99.90;;;;;;5073711;28;20274;-40
2022/08/08 08:26:06;;;;;;;5.03;3.40;;;20.60;99.90;;;;;;5073987;28;20280;-42
2022/08/08 08:28:32;;;;;;;4.67;3.13;;;20.70;99.90;;;;;;5073584;28;20651;-40
2022/08/08 08:31:03;;;;;;;5.10;3.30;;;20.80;99.90;;;;;;5073457;28;20217;-42
2022/08/08 08:33:29;;;;;;;4.77;3.10;;;20.90;99.90;;;;;;5073603;28;20164;-42
2022/08/08 08:35:55;;;;;;;6.20;3.23;;;21.00;99.90;;;;;;5073540;28;20191;-42
2022/08/08 08:38:20;;;;;;;6.57;3.60;;;21.00;99.90;;;;;;5073469;28;20241;-41
2022/08/08 08:40:46;;;;;;;4.33;3.40;;;21.10;99.90;;;;;;5073456;28;20741;-40
2022/08/08 08:43:13;;;;;;;7.27;3.40;;;21.10;99.90;;;;;;5073455;28;20587;-42
2022/08/08 08:45:39;;;;;;;5.73;3.60;;;21.20;99.90;;;;;;5073434;28;20189;-42
2022/08/08 08:48:05;;;;;;;6.90;3.47;;;21.30;99.90;;;;;;5073726;28;20176;-41
2022/08/08 08:50:33;;;;;;;7.13;3.53;;;21.40;99.90;;;;;;5073351;28;20199;-41
2022/08/08 08:53:02;;;;;;;6.70;3.60;;;21.40;99.90;;;;;;5073476;28;20214;-42
2022/08/08 08:55:30;;;;;;;6.60;3.47;;;21.50;99.90;;;;;;5073591;28;20247;-40
2022/08/08 08:57:57;;;;;;;8.17;3.30;;;21.60;99.90;;;;;;5073513;28;20187;-40
2022/08/08 09:00:23;;;;;;;6.47;3.33;;;21.60;99.90;;;;;;5073329;28;20282;-41
2022/08/08 09:02:50;;;;;;;5.60;3.03;;;21.70;99.90;;;;;;5073215;28;20664;-43
2022/08/08 09:05:17;;;;;;;6.60;2.90;;;21.80;99.90;;;;;;5073499;28;20183;-42
2022/08/08 09:07:45;;;;;;;5.07;2.57;;;21.90;99.90;;;;;;5073528;28;20635;-42
2022/08/08 09:10:15;;;;;;;4.97;3.00;;;22.00;99.90;;;;;;5073433;28;20196;-41
2022/08/08 09:12:46;;;;;;;5.60;3.13;;;22.20;99.90;;;;;;5073342;28;20316;-42
2022/08/08 09:15:12;;;;;;;4.53;2.70;;;22.20;99.90;;;;;;5073478;28;20168;-42
2022/08/08 09:17:38;;;;;;;3.00;2.47;;;22.20;99.90;;;;;;5073164;28;20550;-41
2022/08/08 09:20:05;;;;;;;5.90;2.70;;;22.30;99.90;;;;;;5073022;28;20275;-44
2022/08/08 09:22:30;;;;;;;4.67;3.07;;;22.30;99.90;;;;;;5073312;28;20203;-41
2022/08/08 09:24:56;;;;;;;5.43;3.20;;;22.30;99.90;;;;;;5073062;28;20179;-44
2022/08/08 09:27:22;;;;;;;4.90;3.30;;;22.30;99.90;;;;;;5073271;28;20184;-45
2022/08/08 09:30:09;;;;;;;4.73;2.90;;;22.40;99.90;;;;;;5072908;28;20658;-45
2022/08/08 09:32:41;;;;;;;9.33;2.67;;;22.60;99.90;;;;;;5072978;28;20199;-44
2022/08/08 09:35:17;;;;;;;3.17;2.33;;;22.60;99.90;;;;;;5073114;28;20192;-45
2022/08/08 09:37:45;;;;;;;3.90;2.80;;;22.70;99.90;;;;;;5072874;28;20203;-46
2022/08/08 09:40:13;;;;;;;4.13;2.77;;;22.80;99.90;;;;;;5072722;28;20610;-46
2022/08/08 09:42:44;;;;;;;3.60;2.67;;;22.80;99.90;;;;;;5072734;28;20184;-45
2022/08/08 09:45:42;;;;;;;4.27;2.80;;;22.80;99.90;;;;;;5073404;28;20195;-46
2022/08/08 09:48:10;;;;;;;4.73;2.70;;;22.90;99.90;;;;;;5064541;28;20196;-46
2022/08/08 09:50:36;;;;;;;5.53;3.00;;;22.90;99.90;;;;;;5073355;28;20627;-45
2022/08/08 09:53:05;;;;;;;5.17;2.60;;;22.90;99.90;;;;;;5072656;28;20242;-45
2022/08/08 09:55:30;;;;;;;3.17;2.50;;;23.00;99.90;;;;;;5072810;28;20258;-44
2022/08/08 09:58:06;;;;;;;3.90;2.70;;;23.10;99.90;;;;;;5072732;28;20255;-45
2022/08/08 10:00:36;;;;;;;3.90;2.70;;;23.20;99.90;;;;;;5072924;28;20282;-46
2022/08/08 10:03:03;;;;;;;8.47;3.17;;;23.30;99.90;;;;;;5072976;28;20176;-45
2022/08/08 10:05:33;;;;;;;6.30;2.57;;;23.30;99.90;;;;;;5073020;28;20186;-45
2022/08/08 10:07:59;;;;;;;2.57;2.03;;;23.40;99.90;;;;;;5073586;28;20190;-46
2022/08/08 10:10:30;;;;;;;3.83;2.67;;;23.50;99.90;;;;;;5076415;28;20294;-44
2022/08/08 10:12:57;;;;;;;2.93;2.50;;;23.50;99.90;;;;;;5074869;28;20207;-43
2022/08/08 10:15:25;;;;;;;3.27;2.60;;;23.50;99.90;;;;;;5076598;28;20586;-44
2022/08/08 10:17:54;;;;;;;2.67;2.47;;;23.60;99.90;;;;;;5076363;28;20191;-44
2022/08/08 10:20:22;;;;;;;4.87;2.57;;;23.80;99.90;;;;;;5076016;28;20200;-44
2022/08/08 10:23:03;;;;;;;2.90;2.37;;;23.90;99.90;;;;;;5076345;28;20187;-44
2022/08/08 10:25:29;;;;;;;3.70;2.43;;;23.90;99.90;;;;;;5076038;28;20185;-44
2022/08/08 10:27:55;;;;;;;5.83;2.60;;;23.80;99.90;;;;;;5076254;28;20184;-44
2022/08/08 10:30:23;;;;;;;8.03;2.90;;;23.90;99.90;;;;;;5075864;28;20218;-45
2022/08/08 10:32:57;;;;;;;5.87;2.53;;;23.80;99.90;;;;;;5076013;28;20216;-44
2022/08/08 10:35:28;;;;;;;3.90;2.57;;;23.90;99.90;;;;;;5075750;28;20648;-44
2022/08/08 10:38:03;;;;;;;3.53;2.63;;;24.00;99.90;;;;;;5074402;28;20333;-44
2022/08/08 10:40:30;;;;;;;4.63;2.40;;;24.00;99.90;;;;;;5075663;28;20565;-44
2022/08/08 10:43:01;;;;;;;2.63;2.43;;;24.20;99.90;;;;;;5075932;28;20305;-44
2022/08/08 10:45:28;;;;;;;2.60;2.40;;;24.30;99.90;;;;;;5075792;28;20198;-44
2022/08/08 10:47:59;;;;;;;3.60;2.20;;;24.40;99.90;;;;;;5075830;28;20594;-44
2022/08/08 10:50:35;;;;;;;3.80;2.40;;;24.40;99.90;;;;;;5074281;28;20207;-43
2022/08/08 10:53:03;;;;;;;4.40;2.73;;;24.40;99.90;;;;;;5075732;28;20287;-45
2022/08/08 10:55:29;;;;;;;5.27;2.23;;;24.40;99.90;;;;;;5075457;28;20175;-45
2022/08/08 10:58:00;;;;;;;4.23;2.57;;;24.50;99.90;;;;;;5075435;28;20195;-44
2022/08/08 11:00:26;;;;;;;2.77;2.17;;;24.60;99.90;;;;;;5075593;28;20249;-43
2022/08/08 11:02:53;;;;;;;5.17;2.33;;;24.70;99.90;;;;;;5075328;28;20184;-44
2022/08/08 11:05:19;;;;;;;2.37;1.93;;;24.60;99.90;;;;;;5075474;28;20211;-46
2022/08/08 11:07:50;;;;;;;2.80;2.10;;;24.70;99.90;;;;;;5075618;28;20190;-44
2022/08/08 11:10:24;;;;;;;2.70;1.97;;;24.80;99.90;;;;;;5075121;28;20242;-44
2022/08/08 11:12:52;;;;;;;2.73;2.33;;;24.90;99.90;;;;;;5075353;28;20199;-45
2022/08/08 11:15:23;;;;;;;3.13;2.20;;;25.00;99.90;;;;;;5075063;28;20183;-44
2022/08/08 11:17:50;;;;;;;3.67;2.00;;;25.10;99.90;;;;;;5074999;28;20176;-44
2022/08/08 11:20:17;;;;;;;2.27;2.07;;;25.10;99.90;;;;;;5074521;28;20567;-45
2022/08/08 11:22:52;;;;;;;3.40;2.10;;;25.20;99.20;;;;;;5075195;28;20218;-43
2022/08/08 11:25:24;;;;;;;2.60;2.20;;;25.10;99.30;;;;;;5075212;28;20176;-44
2022/08/08 11:27:53;;;;;;;2.00;1.60;;;25.10;99.90;;;;;;5075139;28;20179;-45
2022/08/08 11:30:22;;;;;;;3.55;1.75;;;25.10;99.90;;;;;;5074789;28;20728;-44
2022/08/08 11:32:52;;;;;;;2.22;2.00;;;25.10;99.10;;;;;;5074943;28;20292;-45
2022/08/08 11:35:20;;;;;;;3.10;2.08;;;25.20;98.60;;;;;;5074830;28;20176;-46
2022/08/08 11:37:46;;;;;;;4.10;2.25;;;25.20;99.00;;;;;;5074552;28;20572;-45
2022/08/08 11:40:13;;;;;;;3.67;1.95;;;25.30;98.80;;;;;;5074462;28;20205;-44
2022/08/08 11:42:40;;;;;;;3.05;2.20;;;25.40;99.90;;;;;;5074486;28;20261;-44
2022/08/08 11:45:07;;;;;;;2.97;2.05;;;25.50;99.60;;;;;;5074450;28;20294;-45
2022/08/08 11:47:34;;;;;;;3.25;2.30;;;25.60;98.60;;;;;;5074424;28;20254;-44
2022/08/08 11:50:07;;;;;;;2.13;1.90;;;25.60;99.90;;;;;;5074633;28;20529;-45
2022/08/08 11:52:35;;;;;;;3.13;1.98;;;25.80;99.90;;;;;;5074232;28;20761;-45
2022/08/08 11:55:12;;;;;;;2.63;1.90;;;25.90;98.60;;;;;;5073134;28;20176;-43
2022/08/08 11:57:38;;;;;;;2.47;2.00;;;25.90;98.50;;;;;;5074537;28;20623;-45
2022/08/08 12:00:06;;;;;;;2.97;1.90;;;25.80;96.60;;;;;;5074317;28;20191;-45
2022/08/08 12:02:42;;;;;;;2.58;1.80;;;25.70;96.90;;;;;;5074438;28;20188;-44
2022/08/08 12:05:10;;;;;;;2.00;1.40;;;25.80;98.50;;;;;;5074171;28;20163;-44
2022/08/08 12:07:55;;;;;;;3.55;1.80;;;25.80;98.10;;;;;;5074283;28;20181;-46
2022/08/08 12:10:25;;;;;;;5.30;1.85;;;25.80;97.50;;;;;;5074713;28;20195;-45
2022/08/08 12:13:09;;;;;;;2.70;2.00;;;25.90;97.00;;;;;;5074087;28;20210;-44
2022/08/08 12:15:37;;;;;;;2.00;1.80;;;25.80;98.80;;;;;;5074255;28;20574;-46
2022/08/08 12:18:16;;;;;;;2.10;1.73;;;25.90;98.00;;;;;;5074382;28;20599;-44
2022/08/08 12:20:41;;;;;;;6.28;1.83;;;26.00;99.60;;;;;;5074021;28;20195;-44
2022/08/08 12:23:07;;;;;;;5.75;1.98;;;26.10;99.70;;;;;;5073772;28;20176;-45
2022/08/08 12:25:34;;;;;;;5.25;1.90;;;26.10;97.60;;;;;;5073769;28;20190;-44
2022/08/08 12:28:11;;;;;;;2.58;1.95;;;26.10;97.70;;;;;;5073688;28;20266;-45
2022/08/08 12:30:37;;;;;;;4.07;2.20;;;26.20;98.10;;;;;;5073580;28;20199;-45
2022/08/08 12:33:03;;;;;;;3.55;1.75;;;26.30;97.50;;;;;;5073408;28;20280;-45
2022/08/08 12:35:38;;;;;;;2.33;1.75;;;26.30;97.20;;;;;;5073568;28;20647;-44
2022/08/08 12:38:07;;;;;;;2.80;1.80;;;26.30;97.00;;;;;;5073610;28;20233;-46
2022/08/08 12:40:45;;;;;;;2.40;1.77;;;26.40;96.90;;;;;;5073713;28;20279;-45
2022/08/08 12:43:14;;;;;;;3.45;2.10;;;26.40;96.90;;;;;;5073371;28;20289;-44
2022/08/08 12:45:42;;;;;;;2.40;2.08;;;26.30;96.80;;;;;;5073100;28;20662;-45
2022/08/08 12:48:24;;;;;;;2.50;1.90;;;26.20;96.50;;;;;;5073336;28;20257;-46
2022/08/08 12:50:56;;;;;;;4.45;2.00;;;26.20;97.20;;;;;;5073373;28;20192;-44
2022/08/08 12:53:26;;;;;;;5.32;2.13;;;26.20;96.60;;;;;;5073585;28;20182;-45
2022/08/08 12:55:57;;;;;;;8.38;2.25;;;26.20;96.90;;;;;;5073497;28;20167;-45
2022/08/08 12:58:25;;;;;;;2.17;1.90;;;26.20;98.00;;;;;;5073578;28;20164;-46
2022/08/08 13:00:51;;;;;;;3.85;2.05;;;26.30;99.10;;;;;;5073446;28;20187;-46
2022/08/08 13:03:28;;;;;;;5.38;2.10;;;26.30;97.00;;;;;;5073579;28;20263;-45
2022/08/08 13:06:08;;;;;;;1.92;1.70;;;26.30;96.80;;;;;;5073577;28;20168;-44
2022/08/08 13:08:47;;;;;;;2.67;1.80;;;26.20;97.20;;;;;;5073496;28;20186;-45
2022/08/08 13:11:33;;;;;;;3.72;2.15;;;26.20;96.80;;;;;;5072964;28;20274;-45
2022/08/08 13:14:00;;;;;;;2.45;1.83;;;26.20;97.40;;;;;;5073272;28;20202;-46
2022/08/08 13:16:26;;;;;;;2.63;1.88;;;26.30;96.40;;;;;;5073437;28;20187;-46
2022/08/08 13:18:59;;;;;;;3.97;1.80;;;26.20;96.70;;;;;;5073099;28;20545;-45
2022/08/08 13:21:25;;;;;;;2.85;1.95;;;26.20;97.00;;;;;;5071806;28;20211;-45
2022/08/08 13:23:50;;;;;;;1.80;1.70;;;26.20;96.90;;;;;;5073119;28;20171;-45